sensor_id;sensor_type;location;lat;lon;timestamp;pressure;altitude;pressure_sealevel;temperature;humidity
28921;BME280;16035;53.594;9.952;2022-07-29T00:01:30;102002.72;;;15.61;56.19
28921;BME280;16035;53.594;9.952;2022-07-29T00:03:30;102010.13;;;15.60;56.58
28921;BME280;16035;53.594;9.952;2022-07-29T00:05:31;102008.72;;;15.58;56.56
28921;BME280;16035;53.594;9.952;2022-07-29T00:07:31;102009.81;;;15.57;56.43
28921;BME280;16035;53.594;9.952;2022-07-29T00:09:32;102007.34;;;15.55;56.76
28921;BME280;16035;53.594;9.952;2022-07-29T00:11:32;101999.41;;;15.54;56.93
28921;BME280;16035;53.594;9.952;2022-07-29T00:13:33;102003.47;;;15.51;56.64
28921;BME280;16035;53.594;9.952;2022-07-29T00:15:33;102006.50;;;15.50;56.92
28921;BME280;16035;53.594;9.952;2022-07-29T00:17:34;101998.78;;;15.47;56.60
28921;BME280;16035;53.594;9.952;2022-07-29T00:19:34;102001.22;;;15.43;56.80
28921;BME280;16035;53.594;9.952;2022-07-29T00:21:34;102000.09;;;15.39;57.07
28921;BME280;16035;53.594;9.952;2022-07-29T00:23:35;101997.03;;;15.35;56.72
28921;BME280;16035;53.594;9.952;2022-07-29T00:25:35;102001.16;;;15.33;56.79
28921;BME280;16035;53.594;9.952;2022-07-29T00:27:36;101991.81;;;15.29;57.23
28921;BME280;16035;53.594;9.952;2022-07-29T00:29:36;101997.56;;;15.27;57.36
28921;BME280;16035;53.594;9.952;2022-07-29T00:31:37;101991.81;;;15.29;57.22
28921;BME280;16035;53.594;9.952;2022-07-29T00:33:37;101990.41;;;15.26;57.32
28921;BME280;16035;53.594;9.952;2022-07-29T00:35:37;101991.50;;;15.25;57.50
28921;BME280;16035;53.594;9.952;2022-07-29T00:37:44;101983.78;;;15.22;57.23
28921;BME280;16035;53.594;9.952;2022-07-29T00:39:44;101989.53;;;15.21;57.36
28921;BME280;16035;53.594;9.952;2022-07-29T00:41:45;101985.16;;;15.20;57.54
28921;BME280;16035;53.594;9.952;2022-07-29T00:43:45;101985.69;;;15.16;57.61
28921;BME280;16035;53.594;9.952;2022-07-29T00:45:46;101984.59;;;15.17;57.49
28921;BME280;16035;53.594;9.952;2022-07-29T00:47:46;101984.59;;;15.17;57.57
28921;BME280;16035;53.594;9.952;2022-07-29T00:49:46;101984.53;;;15.12;57.81
28921;BME280;16035;53.594;9.952;2022-07-29T00:51:48;101980.69;;;15.08;57.69
28921;BME280;16035;53.594;9.952;2022-07-29T00:53:49;101986.97;;;15.09;57.73
28921;BME280;16035;53.594;9.952;2022-07-29T00:55:51;101979.63;;;15.09;58.22
28921;BME280;16035;53.594;9.952;2022-07-29T00:57:53;101983.13;;;15.05;57.96
28921;BME280;16035;53.594;9.952;2022-07-29T00:59:53;101976.25;;;15.02;58.15
28921;BME280;16035;53.594;9.952;2022-07-29T01:01:54;101972.97;;;15.00;57.84
28921;BME280;16035;53.594;9.952;2022-07-29T01:03:54;101978.44;;;15.00;58.07
28921;BME280;16035;53.594;9.952;2022-07-29T01:05:55;101971.06;;;15.01;58.03
28921;BME280;16035;53.594;9.952;2022-07-29T01:07:56;101969.66;;;14.98;58.11
28921;BME280;16035;53.594;9.952;2022-07-29T01:09:58;101971.00;;;14.96;58.27
28921;BME280;16035;53.594;9.952;2022-07-29T01:11:59;101965.53;;;14.96;58.69
28921;BME280;16035;53.594;9.952;2022-07-29T01:14:00;101975.34;;;14.91;58.20
28921;BME280;16035;53.594;9.952;2022-07-29T01:16:09;101967.97;;;14.92;58.56
28921;BME280;16035;53.594;9.952;2022-07-29T01:18:22;101972.03;;;14.89;58.62
28921;BME280;16035;53.594;9.952;2022-07-29T01:29:55;101952.75;;;14.74;58.85
28921;BME280;16035;53.594;9.952;2022-07-29T01:32:10;101950.25;;;14.73;58.96
28921;BME280;16035;53.594;9.952;2022-07-29T01:34:20;101945.31;;;14.70;58.86
28921;BME280;16035;53.594;9.952;2022-07-29T01:36:45;101951.34;;;14.72;59.09
28921;BME280;16035;53.594;9.952;2022-07-29T01:38:55;101944.50;;;14.69;59.40
28921;BME280;16035;53.594;9.952;2022-07-29T01:41:05;101943.66;;;14.69;59.14
28921;BME280;16035;53.594;9.952;2022-07-29T01:43:12;101943.91;;;14.67;58.99
28921;BME280;16035;53.594;9.952;2022-07-29T01:45:18;101936.81;;;14.66;59.18
28921;BME280;16035;53.594;9.952;2022-07-29T01:47:23;101942.28;;;14.66;59.03
28921;BME280;16035;53.594;9.952;2022-07-29T01:49:28;101937.06;;;14.64;59.27
28921;BME280;16035;53.594;9.952;2022-07-29T01:51:32;101932.41;;;14.65;59.49
28921;BME280;16035;53.594;9.952;2022-07-29T01:53:34;101935.16;;;14.65;59.49
28921;BME280;16035;53.594;9.952;2022-07-29T01:55:39;101929.38;;;14.61;59.63
28921;BME280;16035;53.594;9.952;2022-07-29T01:57:42;101930.19;;;14.62;59.30
28921;BME280;16035;53.594;9.952;2022-07-29T01:59:46;101921.16;;;14.61;59.32
28921;BME280;16035;53.594;9.952;2022-07-29T02:01:47;101914.88;;;14.61;59.49
28921;BME280;16035;53.594;9.952;2022-07-29T02:03:50;101925.28;;;14.64;59.68
28921;BME280;16035;53.594;9.952;2022-07-29T02:05:53;101914.59;;;14.62;59.44
28921;BME280;16035;53.594;9.952;2022-07-29T02:07:53;101917.34;;;14.62;59.62
28921;BME280;16035;53.594;9.952;2022-07-29T02:09:56;101917.34;;;14.62;59.89
28921;BME280;16035;53.594;9.952;2022-07-29T02:11:59;101913.78;;;14.62;59.68
28921;BME280;16035;53.594;9.952;2022-07-29T02:14:01;101918.13;;;14.58;59.44
28921;BME280;16035;53.594;9.952;2022-07-29T02:16:05;101916.97;;;14.54;59.57
28921;BME280;16035;53.594;9.952;2022-07-29T02:18:09;101919.44;;;14.55;59.68
28921;BME280;16035;53.594;9.952;2022-07-29T02:20:11;101913.72;;;14.57;59.74
28921;BME280;16035;53.594;9.952;2022-07-29T02:22:12;101916.78;;;14.60;60.06
28921;BME280;16035;53.594;9.952;2022-07-29T02:24:14;101909.91;;;14.58;59.74
28921;BME280;16035;53.594;9.952;2022-07-29T02:26:17;101914.88;;;14.61;59.81
28921;BME280;16035;53.594;9.952;2022-07-29T02:28:18;101910.78;;;14.63;59.86
28921;BME280;16035;53.594;9.952;2022-07-29T02:30:21;101900.09;;;14.62;59.76
28921;BME280;16035;53.594;9.952;2022-07-29T02:32:23;101905.56;;;14.62;59.88
28921;BME280;16035;53.594;9.952;2022-07-29T02:34:25;101900.91;;;14.62;59.88
28921;BME280;16035;53.594;9.952;2022-07-29T02:36:26;101902.84;;;14.62;59.82
28921;BME280;16035;53.594;9.952;2022-07-29T02:38:28;101908.31;;;14.62;60.10
28921;BME280;16035;53.594;9.952;2022-07-29T02:40:49;101903.09;;;14.60;60.25
28921;BME280;16035;53.594;9.952;2022-07-29T02:42:50;101900.09;;;14.62;59.88
28921;BME280;16035;53.594;9.952;2022-07-29T02:44:51;101905.88;;;14.65;59.71
28921;BME280;16035;53.594;9.952;2022-07-29T02:49:27;101898.81;;;14.70;60.20
28921;BME280;16035;53.594;9.952;2022-07-29T02:51:51;101899.03;;;14.68;60.43
28921;BME280;16035;53.594;9.952;2022-07-29T02:53:54;101897.13;;;14.69;60.16
28921;BME280;16035;53.594;9.952;2022-07-29T02:56:04;101896.31;;;14.68;60.30
28921;BME280;16035;53.594;9.952;2022-07-29T02:58:14;101895.50;;;14.68;60.29
28921;BME280;16035;53.594;9.952;2022-07-29T03:00:17;101896.59;;;14.66;60.05
28921;BME280;16035;53.594;9.952;2022-07-29T03:02:18;101893.03;;;14.66;60.29
28921;BME280;16035;53.594;9.952;2022-07-29T03:04:20;101893.03;;;14.66;60.20
28921;BME280;16035;53.594;9.952;2022-07-29T03:06:23;101893.03;;;14.66;60.18
28921;BME280;16035;53.594;9.952;2022-07-29T03:08:26;101887.56;;;14.66;60.44
28921;BME280;16035;53.594;9.952;2022-07-29T03:10:28;101886.72;;;14.65;60.35
28921;BME280;16035;53.594;9.952;2022-07-29T03:12:29;101887.88;;;14.70;60.35
28921;BME280;16035;53.594;9.952;2022-07-29T03:14:30;101888.69;;;14.70;60.63
28921;BME280;16035;53.594;9.952;2022-07-29T03:16:33;101885.13;;;14.70;60.50
28921;BME280;16035;53.594;9.952;2022-07-29T03:18:37;101892.25;;;14.71;60.61
28921;BME280;16035;53.594;9.952;2022-07-29T03:20:38;101895.53;;;14.73;60.43
28921;BME280;16035;53.594;9.952;2022-07-29T03:22:40;101891.72;;;14.74;60.40
28921;BME280;16035;53.594;9.952;2022-07-29T03:24:43;101890.38;;;14.76;60.34
28921;BME280;16035;53.594;9.952;2022-07-29T03:26:44;101885.72;;;14.77;60.55
28921;BME280;16035;53.594;9.952;2022-07-29T03:28:44;101883.56;;;14.79;60.90
28921;BME280;16035;53.594;9.952;2022-07-29T03:30:44;101882.19;;;14.81;60.85
28921;BME280;16035;53.594;9.952;2022-07-29T03:32:45;101893.44;;;14.85;60.37
28921;BME280;16035;53.594;9.952;2022-07-29T03:34:45;101881.16;;;14.87;60.54
28921;BME280;16035;53.594;9.952;2022-07-29T03:36:46;101880.91;;;14.89;60.56
28921;BME280;16035;53.594;9.952;2022-07-29T03:38:47;101884.75;;;14.93;60.51
28921;BME280;16035;53.594;9.952;2022-07-29T03:40:53;101880.09;;;14.94;60.78
28921;BME280;16035;53.594;9.952;2022-07-29T03:42:55;101875.97;;;14.91;60.74
28921;BME280;16035;53.594;9.952;2022-07-29T03:44:57;101876.81;;;14.91;60.69
28921;BME280;16035;53.594;9.952;2022-07-29T03:46:59;101880.94;;;14.94;60.40
28921;BME280;16035;53.594;9.952;2022-07-29T03:49:03;101874.13;;;14.97;60.78
28921;BME280;16035;53.594;9.952;2022-07-29T03:51:05;101885.88;;;14.97;60.58
28921;BME280;16035;53.594;9.952;2022-07-29T03:53:06;101874.66;;;14.99;60.75
28921;BME280;16035;53.594;9.952;2022-07-29T03:55:08;101877.72;;;15.02;60.74
28921;BME280;16035;53.594;9.952;2022-07-29T03:57:10;101880.44;;;15.02;60.37
28921;BME280;16035;53.594;9.952;2022-07-29T03:59:13;101874.69;;;15.04;60.45
28921;BME280;16035;53.594;9.952;2022-07-29T04:01:14;101871.16;;;15.08;59.96
28921;BME280;16035;53.594;9.952;2022-07-29T04:03:15;101880.50;;;15.12;59.79
28921;BME280;16035;53.594;9.952;2022-07-29T04:05:16;101882.41;;;15.12;59.71
28921;BME280;16035;53.594;9.952;2022-07-29T04:07:17;101882.94;;;15.09;60.04
28921;BME280;16035;53.594;9.952;2022-07-29T04:09:18;101881.06;;;15.09;60.12
28921;BME280;16035;53.594;9.952;2022-07-29T04:11:18;101871.75;;;15.10;59.65
28921;BME280;16035;53.594;9.952;2022-07-29T04:13:20;101883.25;;;15.12;59.88
28921;BME280;16035;53.594;9.952;2022-07-29T04:15:20;101884.38;;;15.16;60.29
28921;BME280;16035;53.594;9.952;2022-07-29T04:17:20;101885.47;;;15.15;59.53
28921;BME280;16035;53.594;9.952;2022-07-29T04:19:21;101884.38;;;15.16;60.50
28921;BME280;16035;53.594;9.952;2022-07-29T04:21:21;101880.28;;;15.19;60.22
28921;BME280;16035;53.594;9.952;2022-07-29T04:23:22;101880.59;;;15.23;60.24
28921;BME280;16035;53.594;9.952;2022-07-29T04:25:22;101881.13;;;15.25;59.90
28921;BME280;16035;53.594;9.952;2022-07-29T04:27:23;101880.88;;;15.26;59.98
28921;BME280;16035;53.594;9.952;2022-07-29T04:29:23;101881.44;;;15.28;60.13
28921;BME280;16035;53.594;9.952;2022-07-29T04:31:23;101880.06;;;15.31;60.42
28921;BME280;16035;53.594;9.952;2022-07-29T04:33:24;101877.09;;;15.32;60.49
28921;BME280;16035;53.594;9.952;2022-07-29T04:35:24;101870.22;;;15.35;60.40
28921;BME280;16035;53.594;9.952;2022-07-29T04:37:25;101872.97;;;15.35;60.17
28921;BME280;16035;53.594;9.952;2022-07-29T04:39:25;101873.56;;;15.37;59.79
28921;BME280;16035;53.594;9.952;2022-07-29T04:41:26;101877.41;;;15.41;60.07
28921;BME280;16035;53.594;9.952;2022-07-29T04:43:26;101871.38;;;15.44;60.24
28921;BME280;16035;53.594;9.952;2022-07-29T04:45:27;101873.31;;;15.49;60.01
28921;BME280;16035;53.594;9.952;2022-07-29T04:47:28;101875.22;;;15.48;59.75
28921;BME280;16035;53.594;9.952;2022-07-29T04:49:28;101875.00;;;15.50;59.67
28921;BME280;16035;53.594;9.952;2022-07-29T04:51:28;101877.44;;;15.51;59.74
28921;BME280;16035;53.594;9.952;2022-07-29T04:53:29;101868.72;;;15.54;59.55
28921;BME280;16035;53.594;9.952;2022-07-29T04:55:29;101878.03;;;15.58;60.30
28921;BME280;16035;53.594;9.952;2022-07-29T04:57:30;101867.63;;;15.60;60.31
28921;BME280;16035;53.594;9.952;2022-07-29T04:59:30;101862.16;;;15.60;60.00
28921;BME280;16035;53.594;9.952;2022-07-29T05:01:30;101877.25;;;15.63;59.56
28921;BME280;16035;53.594;9.952;2022-07-29T05:03:31;101871.19;;;15.61;59.56
28921;BME280;16035;53.594;9.952;2022-07-29T05:05:31;101875.31;;;15.58;59.42
28921;BME280;16035;53.594;9.952;2022-07-29T05:07:32;101870.63;;;15.54;59.64
28921;BME280;16035;53.594;9.952;2022-07-29T05:09:32;101873.63;;;15.57;59.33
28921;BME280;16035;53.594;9.952;2022-07-29T05:11:32;101881.06;;;15.62;59.82
28921;BME280;16035;53.594;9.952;2022-07-29T05:13:33;101886.34;;;15.69;60.23
28921;BME280;16035;53.594;9.952;2022-07-29T05:15:34;101883.06;;;15.72;59.93
28921;BME280;16035;53.594;9.952;2022-07-29T05:17:34;101879.25;;;15.78;60.14
28921;BME280;16035;53.594;9.952;2022-07-29T05:19:35;101889.94;;;15.84;60.08
28921;BME280;16035;53.594;9.952;2022-07-29T05:21:35;101883.94;;;15.92;60.26
28921;BME280;16035;53.594;9.952;2022-07-29T05:23:36;101882.59;;;15.95;60.32
28921;BME280;16035;53.594;9.952;2022-07-29T05:25:36;101879.59;;;16.02;60.31
28921;BME280;16035;53.594;9.952;2022-07-29T05:27:36;101874.97;;;16.07;60.42
28921;BME280;16035;53.594;9.952;2022-07-29T05:29:37;101876.31;;;16.10;59.99
28921;BME280;16035;53.594;9.952;2022-07-29T05:31:37;101877.72;;;16.12;60.14
28921;BME280;16035;53.594;9.952;2022-07-29T05:33:37;101883.47;;;16.16;60.65
28921;BME280;16035;53.594;9.952;2022-07-29T05:35:38;101876.34;;;16.20;60.81
28921;BME280;16035;53.594;9.952;2022-07-29T05:37:38;101887.06;;;16.27;60.75
28921;BME280;16035;53.594;9.952;2022-07-29T05:39:40;101881.59;;;16.32;60.39
28921;BME280;16035;53.594;9.952;2022-07-29T05:41:40;101889.00;;;16.36;59.80
28921;BME280;16035;53.594;9.952;2022-07-29T05:43:40;101901.91;;;16.41;59.76
28921;BME280;16035;53.594;9.952;2022-07-29T05:45:41;101900.78;;;16.42;59.74
28921;BME280;16035;53.594;9.952;2022-07-29T05:47:41;101893.13;;;16.44;59.58
28921;BME280;16035;53.594;9.952;2022-07-29T05:49:41;101892.84;;;16.46;59.70
28921;BME280;16035;53.594;9.952;2022-07-29T05:51:42;101890.41;;;16.49;59.86
28921;BME280;16035;53.594;9.952;2022-07-29T05:53:42;101891.50;;;16.53;60.13
28921;BME280;16035;53.594;9.952;2022-07-29T05:55:42;101889.84;;;16.52;58.85
28921;BME280;16035;53.594;9.952;2022-07-29T05:57:43;101897.81;;;16.49;59.43
28921;BME280;16035;53.594;9.952;2022-07-29T05:59:45;101894.25;;;16.48;59.24
28921;BME280;16035;53.594;9.952;2022-07-29T06:01:45;101894.25;;;16.48;59.30
28921;BME280;16035;53.594;9.952;2022-07-29T06:03:46;101892.03;;;16.60;59.40
28921;BME280;16035;53.594;9.952;2022-07-29T06:05:46;101887.97;;;16.73;59.29
28921;BME280;16035;53.594;9.952;2022-07-29T06:07:46;101888.50;;;16.85;59.08
28921;BME280;16035;53.594;9.952;2022-07-29T06:09:47;101883.84;;;16.91;58.94
28921;BME280;16035;53.594;9.952;2022-07-29T06:11:47;101883.31;;;16.89;58.53
28921;BME280;16035;53.594;9.952;2022-07-29T06:13:47;101884.94;;;16.90;58.44
28921;BME280;16035;53.594;9.952;2022-07-29T06:15:48;101888.78;;;16.94;58.54
28921;BME280;16035;53.594;9.952;2022-07-29T06:17:48;101884.38;;;16.98;58.56
28921;BME280;16035;53.594;9.952;2022-07-29T06:19:48;101891.50;;;17.04;58.00
28921;BME280;16035;53.594;9.952;2022-07-29T06:21:49;101890.69;;;17.04;58.33
28921;BME280;16035;53.594;9.952;2022-07-29T06:23:49;101886.28;;;17.13;58.63
28921;BME280;16035;53.594;9.952;2022-07-29T06:25:50;101885.44;;;17.23;58.34
28921;BME280;16035;53.594;9.952;2022-07-29T06:27:50;101880.75;;;17.33;58.68
28921;BME280;16035;53.594;9.952;2022-07-29T06:29:50;101883.19;;;17.45;58.47
28921;BME280;16035;53.594;9.952;2022-07-29T06:31:51;101881.00;;;17.47;57.78
28921;BME280;16035;53.594;9.952;2022-07-29T06:33:51;101885.09;;;17.44;57.49
28921;BME280;16035;53.594;9.952;2022-07-29T06:35:51;101887.03;;;17.44;57.73
28921;BME280;16035;53.594;9.952;2022-07-29T06:37:52;101881.25;;;17.46;58.04
28921;BME280;16035;53.594;9.952;2022-07-29T06:39:52;101888.69;;;17.50;57.59
28921;BME280;16035;53.594;9.952;2022-07-29T06:42:12;101871.63;;;17.53;57.69
28921;BME280;16035;53.594;9.952;2022-07-29T06:44:13;101873.53;;;17.58;57.70
28921;BME280;16035;53.594;9.952;2022-07-29T06:46:15;101875.16;;;17.59;57.81
28921;BME280;16035;53.594;9.952;2022-07-29T06:48:17;101877.06;;;17.63;57.76
28921;BME280;16035;53.594;9.952;2022-07-29T06:50:17;101881.47;;;17.69;57.67
28921;BME280;16035;53.594;9.952;2022-07-29T06:52:18;101876.78;;;17.75;57.56
28921;BME280;16035;53.594;9.952;2022-07-29T06:54:18;101872.09;;;17.86;57.76
28921;BME280;16035;53.594;9.952;2022-07-29T06:56:18;101875.59;;;17.97;57.55
28921;BME280;16035;53.594;9.952;2022-07-29T06:58:19;101867.28;;;18.07;57.41
28921;BME280;16035;53.594;9.952;2022-07-29T07:00:20;101868.91;;;18.13;56.88
28921;BME280;16035;53.594;9.952;2022-07-29T07:02:20;101865.06;;;18.09;56.94
28921;BME280;16035;53.594;9.952;2022-07-29T07:04:21;101859.81;;;18.12;57.06
28921;BME280;16035;53.594;9.952;2022-07-29T07:06:21;101861.13;;;18.20;57.22
28921;BME280;16035;53.594;9.952;2022-07-29T07:08:22;101861.63;;;18.32;56.35
28921;BME280;16035;53.594;9.952;2022-07-29T07:10:23;101862.69;;;18.36;56.73
28921;BME280;16035;53.594;9.952;2022-07-29T07:12:24;101859.84;;;18.47;57.03
28921;BME280;16035;53.594;9.952;2022-07-29T07:14:24;101863.06;;;18.59;56.81
28921;BME280;16035;53.594;9.952;2022-07-29T07:16:26;101859.16;;;18.65;56.42
28921;BME280;16035;53.594;9.952;2022-07-29T07:18:27;101866.00;;;18.73;56.26
28921;BME280;16035;53.594;9.952;2022-07-29T07:20:28;101860.19;;;18.74;55.44
28921;BME280;16035;53.594;9.952;2022-07-29T07:22:28;101858.88;;;18.72;55.88
28921;BME280;16035;53.594;9.952;2022-07-29T07:24:28;101852.75;;;18.75;55.53
28921;BME280;16035;53.594;9.952;2022-07-29T07:26:30;101852.44;;;18.81;55.71
28921;BME280;16035;53.594;9.952;2022-07-29T07:28:30;101852.06;;;18.93;55.38
28921;BME280;16035;53.594;9.952;2022-07-29T07:30:30;101854.16;;;19.01;55.34
28921;BME280;16035;53.594;9.952;2022-07-29T07:32:32;101856.28;;;19.09;55.29
28921;BME280;16035;53.594;9.952;2022-07-29T07:34:32;101857.06;;;19.15;55.05
28921;BME280;16035;53.594;9.952;2022-07-29T07:36:33;101854.53;;;19.18;55.14
28921;BME280;16035;53.594;9.952;2022-07-29T07:38:34;101857.03;;;19.20;54.74
28921;BME280;16035;53.594;9.952;2022-07-29T07:40:34;101847.63;;;19.21;54.71
28921;BME280;16035;53.594;9.952;2022-07-29T07:42:35;101842.38;;;19.25;54.84
28921;BME280;16035;53.594;9.952;2022-07-29T07:44:35;101846.13;;;19.34;55.10
28921;BME280;16035;53.594;9.952;2022-07-29T07:46:36;101854.56;;;19.42;55.00
28921;BME280;16035;53.594;9.952;2022-07-29T07:48:36;101855.56;;;19.52;54.96
28921;BME280;16035;53.594;9.952;2022-07-29T07:50:36;101848.63;;;19.54;54.85
28921;BME280;16035;53.594;9.952;2022-07-29T07:52:51;101848.34;;;19.56;54.14
28921;BME280;16035;53.594;9.952;2022-07-29T07:54:51;101841.41;;;19.58;54.10
28921;BME280;16035;53.594;9.952;2022-07-29T07:56:53;101843.59;;;19.61;53.78
28921;BME280;16035;53.594;9.952;2022-07-29T07:58:53;101848.00;;;19.62;53.80
28921;BME280;16035;53.594;9.952;2022-07-29T08:00:53;101845.09;;;19.73;54.09
28921;BME280;16035;53.594;9.952;2022-07-29T08:02:54;101843.28;;;19.87;54.28
28921;BME280;16035;53.594;9.952;2022-07-29T08:04:54;101843.06;;;20.02;53.91
28921;BME280;16035;53.594;9.952;2022-07-29T08:06:56;101841.63;;;20.24;53.77
28921;BME280;16035;53.594;9.952;2022-07-29T08:08:57;101844.06;;;20.44;53.52
28921;BME280;16035;53.594;9.952;2022-07-29T08:10:57;101840.00;;;20.74;53.52
28921;BME280;16035;53.594;9.952;2022-07-29T08:12:58;101839.81;;;20.84;51.78
28921;BME280;16035;53.594;9.952;2022-07-29T08:15:01;101841.72;;;21.16;52.31
28921;BME280;16035;53.594;9.952;2022-07-29T08:17:02;101827.09;;;21.30;51.92
28921;BME280;16035;53.594;9.952;2022-07-29T08:19:02;101831.56;;;21.81;51.06
28921;BME280;16035;53.594;9.952;2022-07-29T08:21:03;101826.19;;;22.12;49.84
28921;BME280;16035;53.594;9.952;2022-07-29T08:23:05;101819.44;;;22.49;49.20
28921;BME280;16035;53.594;9.952;2022-07-29T08:25:06;101823.00;;;22.72;47.95
28921;BME280;16035;53.594;9.952;2022-07-29T08:27:07;101827.59;;;22.99;49.42
28921;BME280;16035;53.594;9.952;2022-07-29T08:29:07;101829.66;;;23.25;48.04
28921;BME280;16035;53.594;9.952;2022-07-29T08:31:08;101827.13;;;23.45;47.39
28921;BME280;16035;53.594;9.952;2022-07-29T08:33:08;101826.72;;;23.69;47.81
28921;BME280;16035;53.594;9.952;2022-07-29T08:35:08;101829.19;;;23.97;46.87
28921;BME280;16035;53.594;9.952;2022-07-29T08:37:09;101834.75;;;24.49;47.28
28921;BME280;16035;53.594;9.952;2022-07-29T08:39:09;101831.38;;;25.08;46.31
28921;BME280;16035;53.594;9.952;2022-07-29T08:41:09;101839.31;;;25.56;45.73
28921;BME280;16035;53.594;9.952;2022-07-29T08:43:10;101832.03;;;25.93;44.62
28921;BME280;16035;53.594;9.952;2022-07-29T08:45:10;101831.03;;;26.19;43.78
28921;BME280;16035;53.594;9.952;2022-07-29T08:47:13;101827.88;;;26.41;43.35
28921;BME280;16035;53.594;9.952;2022-07-29T08:49:14;101827.50;;;26.43;42.16
28921;BME280;16035;53.594;9.952;2022-07-29T08:51:17;101828.03;;;26.45;41.65
28921;BME280;16035;53.594;9.952;2022-07-29T08:53:18;101827.88;;;26.20;40.98
28921;BME280;16035;53.594;9.952;2022-07-29T08:55:19;101825.44;;;26.19;41.65
28921;BME280;16035;53.594;9.952;2022-07-29T08:57:21;101826.25;;;26.61;42.21
28921;BME280;16035;53.594;9.952;2022-07-29T08:59:22;101821.28;;;26.91;41.67
28921;BME280;16035;53.594;9.952;2022-07-29T09:01:27;101813.69;;;27.25;41.46
28921;BME280;16035;53.594;9.952;2022-07-29T09:03:31;101812.03;;;27.49;40.06
28921;BME280;16035;53.594;9.952;2022-07-29T09:05:32;101821.19;;;27.86;40.74
28921;BME280;16035;53.594;9.952;2022-07-29T09:07:32;101814.22;;;27.92;39.16
28921;BME280;16035;53.594;9.952;2022-07-29T09:09:33;101817.53;;;28.10;39.10
28921;BME280;16035;53.594;9.952;2022-07-29T09:11:34;101813.78;;;28.46;37.74
28921;BME280;16035;53.594;9.952;2022-07-29T09:13:34;101811.00;;;28.46;37.54
28921;BME280;16035;53.594;9.952;2022-07-29T09:15:35;101810.00;;;28.54;37.80
28921;BME280;16035;53.594;9.952;2022-07-29T09:17:48;101809.03;;;28.78;37.31
28921;BME280;16035;53.594;9.952;2022-07-29T09:19:49;101807.16;;;28.66;36.76
28921;BME280;16035;53.594;9.952;2022-07-29T09:21:50;101811.53;;;28.52;37.09
28921;BME280;16035;53.594;9.952;2022-07-29T09:24:13;101808.75;;;27.83;36.36
28921;BME280;16035;53.594;9.952;2022-07-29T09:26:14;101804.34;;;27.45;37.99
28921;BME280;16035;53.594;9.952;2022-07-29T09:28:16;101810.19;;;27.40;38.20
28921;BME280;16035;53.594;9.952;2022-07-29T09:30:17;101806.56;;;27.03;36.26
28921;BME280;16035;53.594;9.952;2022-07-29T09:32:18;101796.16;;;26.67;37.71
28921;BME280;16035;53.594;9.952;2022-07-29T09:34:26;101799.53;;;26.73;38.34
28921;BME280;16035;53.594;9.952;2022-07-29T09:36:27;101795.84;;;26.81;38.91
28921;BME280;16035;53.594;9.952;2022-07-29T09:38:27;101800.47;;;26.77;37.46
28921;BME280;16035;53.594;9.952;2022-07-29T09:40:28;101795.91;;;26.27;36.96
28921;BME280;16035;53.594;9.952;2022-07-29T09:42:29;101804.69;;;25.95;36.65
28921;BME280;16035;53.594;9.952;2022-07-29T09:44:44;101813.41;;;25.64;36.31
28921;BME280;16035;53.594;9.952;2022-07-29T09:46:54;101813.03;;;25.45;37.34
28921;BME280;16035;53.594;9.952;2022-07-29T09:49:09;101808.03;;;25.30;37.35
28921;BME280;16035;53.594;9.952;2022-07-29T09:51:19;101811.63;;;25.30;37.63
28921;BME280;16035;53.594;9.952;2022-07-29T09:53:30;101808.69;;;25.27;37.91
28921;BME280;16035;53.594;9.952;2022-07-29T09:55:31;101815.41;;;25.26;38.55
28921;BME280;16035;53.594;9.952;2022-07-29T09:57:31;101813.31;;;25.23;38.28
28921;BME280;16035;53.594;9.952;2022-07-29T09:59:32;101818.38;;;25.20;38.74
28921;BME280;16035;53.594;9.952;2022-07-29T10:01:33;101813.53;;;25.09;37.40
28921;BME280;16035;53.594;9.952;2022-07-29T10:03:50;101817.81;;;24.98;38.21
28921;BME280;16035;53.594;9.952;2022-07-29T10:08:05;101816.16;;;25.05;38.52
28921;BME280;16035;53.594;9.952;2022-07-29T10:10:06;101810.63;;;24.96;38.79
28921;BME280;16035;53.594;9.952;2022-07-29T10:12:11;101813.25;;;24.93;39.16
28921;BME280;16035;53.594;9.952;2022-07-29T10:14:14;101807.97;;;25.00;40.27
28921;BME280;16035;53.594;9.952;2022-07-29T10:16:16;101806.19;;;24.95;38.95
28921;BME280;16035;53.594;9.952;2022-07-29T10:18:16;101805.94;;;24.80;38.91
28921;BME280;16035;53.594;9.952;2022-07-29T10:20:20;101801.84;;;24.68;39.02
28921;BME280;16035;53.594;9.952;2022-07-29T10:22:21;101801.88;;;24.60;38.78
28921;BME280;16035;53.594;9.952;2022-07-29T10:24:22;101803.06;;;24.50;39.18
28921;BME280;16035;53.594;9.952;2022-07-29T10:26:23;101799.16;;;24.42;38.96
28921;BME280;16035;53.594;9.952;2022-07-29T10:28:24;101801.13;;;24.25;39.12
28921;BME280;16035;53.594;9.952;2022-07-29T10:30:25;101792.78;;;24.16;38.69
28921;BME280;16035;53.594;9.952;2022-07-29T10:40:15;101787.22;;;24.16;38.92
28921;BME280;16035;53.594;9.952;2022-07-29T10:42:40;101786.25;;;24.12;39.28
28921;BME280;16035;53.594;9.952;2022-07-29T10:44:42;101779.22;;;24.14;38.81
28921;BME280;16035;53.594;9.952;2022-07-29T10:46:43;101780.53;;;24.08;38.95
28921;BME280;16035;53.594;9.952;2022-07-29T10:49:05;101774.81;;;23.96;38.87
28921;BME280;16035;53.594;9.952;2022-07-29T10:51:08;101775.47;;;24.02;40.09
28921;BME280;16035;53.594;9.952;2022-07-29T10:53:08;101791.00;;;24.11;40.28
28921;BME280;16035;53.594;9.952;2022-07-29T10:55:33;101774.63;;;24.18;40.26
28921;BME280;16035;53.594;9.952;2022-07-29T10:57:34;101778.38;;;24.23;40.13
28921;BME280;16035;53.594;9.952;2022-07-29T10:59:37;101778.56;;;24.26;39.11
28921;BME280;16035;53.594;9.952;2022-07-29T11:01:38;101780.19;;;24.27;38.66